sensor_id;sensor_type;location;lat;lon;timestamp;pressure;altitude;pressure_sealevel;temperature;humidity
19108;BME280;9686;48.832;9.126;2023-02-20T00:01:30;99261.66;;;11.89;nan
19108;BME280;9686;48.832;9.126;2023-02-20T00:03:55;99263.38;;;11.83;nan
19108;BME280;9686;48.832;9.126;2023-02-20T00:06:21;99264.25;;;11.82;nan
19108;BME280;9686;48.832;9.126;2023-02-20T00:08:46;99263.34;;;11.78;nan
19108;BME280;9686;48.832;9.126;2023-02-20T00:11:11;99257.28;;;11.82;nan
19108;BME280;9686;48.832;9.126;2023-02-20T00:13:37;99260.78;;;11.89;nan
19108;BME280;9686;48.832;9.126;2023-02-20T00:16:03;99261.63;;;11.82;nan
19108;BME280;9686;48.832;9.126;2023-02-20T00:18:28;99248.59;;;11.85;nan
19108;BME280;9686;48.832;9.126;2023-02-20T00:20:54;99250.34;;;11.87;nan
19108;BME280;9686;48.832;9.126;2023-02-20T00:23:19;99252.84;;;11.72;nan
19108;BME280;9686;48.832;9.126;2023-02-20T00:25:44;99258.06;;;11.75;nan
19108;BME280;9686;48.832;9.126;2023-02-20T00:28:09;99249.38;;;11.76;nan
19108;BME280;9686;48.832;9.126;2023-02-20T00:30:35;99247.56;;;11.69;nan
19108;BME280;9686;48.832;9.126;2023-02-20T00:33:00;99253.66;;;11.69;nan
19108;BME280;9686;48.832;9.126;2023-02-20T00:35:26;99249.22;;;11.50;nan
19108;BME280;9686;48.832;9.126;2023-02-20T00:37:52;99257.06;;;11.53;nan
19108;BME280;9686;48.832;9.126;2023-02-20T00:40:19;99270.88;;;11.41;nan
19108;BME280;9686;48.832;9.126;2023-02-20T00:42:45;99276.97;;;11.42;nan
19108;BME280;9686;48.832;9.126;2023-02-20T00:45:12;99285.75;;;11.47;nan
19108;BME280;9686;48.832;9.126;2023-02-20T00:47:37;99283.06;;;11.42;nan
19108;BME280;9686;48.832;9.126;2023-02-20T00:50:04;99289.13;;;11.38;nan
19108;BME280;9686;48.832;9.126;2023-02-20T00:52:29;99286.50;;;11.34;nan
19108;BME280;9686;48.832;9.126;2023-02-20T00:54:55;99279.50;;;11.31;nan
19108;BME280;9686;48.832;9.126;2023-02-20T00:57:20;99277.69;;;11.20;nan
19108;BME280;9686;48.832;9.126;2023-02-20T00:59:45;99282.00;;;11.18;nan
19108;BME280;9686;48.832;9.126;2023-02-20T01:02:11;99289.78;;;11.15;nan
19108;BME280;9686;48.832;9.126;2023-02-20T01:04:37;99276.75;;;11.16;nan
19108;BME280;9686;48.832;9.126;2023-02-20T01:07:02;99280.16;;;11.04;nan
19108;BME280;9686;48.832;9.126;2023-02-20T01:09:27;99285.41;;;11.09;nan
19108;BME280;9686;48.832;9.126;2023-02-20T01:11:53;99284.50;;;11.04;nan
19108;BME280;9686;48.832;9.126;2023-02-20T01:14:19;99285.34;;;11.01;nan
19108;BME280;9686;48.832;9.126;2023-02-20T01:16:50;99286.19;;;11.00;nan
19108;BME280;9686;48.832;9.126;2023-02-20T01:19:18;99281.00;;;11.02;nan
19108;BME280;9686;48.832;9.126;2023-02-20T01:21:44;99277.50;;;10.98;nan
19108;BME280;9686;48.832;9.126;2023-02-20T01:24:09;99261.72;;;10.88;nan
19108;BME280;9686;48.832;9.126;2023-02-20T01:26:34;99264.28;;;10.81;nan
19108;BME280;9686;48.832;9.126;2023-02-20T01:29:01;99261.56;;;10.69;nan
19108;BME280;9686;48.832;9.126;2023-02-20T01:31:26;99270.25;;;10.71;nan
19108;BME280;9686;48.832;9.126;2023-02-20T01:33:52;99264.91;;;10.59;nan
19108;BME280;9686;48.832;9.126;2023-02-20T01:36:17;99270.97;;;10.57;nan
19108;BME280;9686;48.832;9.126;2023-02-20T01:38:42;99264.00;;;10.57;nan
19108;BME280;9686;48.832;9.126;2023-02-20T01:41:09;99258.13;;;10.75;nan
19108;BME280;9686;48.832;9.126;2023-02-20T01:43:35;99261.56;;;10.69;nan
19108;BME280;9686;48.832;9.126;2023-02-20T01:49:07;99262.13;;;10.42;nan
19108;BME280;9686;48.832;9.126;2023-02-20T01:51:37;99261.00;;;10.21;nan
19108;BME280;9686;48.832;9.126;2023-02-20T01:54:07;99251.69;;;10.41;nan
19108;BME280;9686;48.832;9.126;2023-02-20T01:56:33;99247.16;;;10.28;nan
19108;BME280;9686;48.832;9.126;2023-02-20T01:58:59;99248.00;;;10.25;nan
19108;BME280;9686;48.832;9.126;2023-02-20T02:01:26;99248.28;;;10.49;nan
19108;BME280;9686;48.832;9.126;2023-02-20T02:03:57;99236.88;;;10.40;nan
19108;BME280;9686;48.832;9.126;2023-02-20T02:06:24;99244.50;;;10.22;nan
19108;BME280;9686;48.832;9.126;2023-02-20T02:08:50;99248.03;;;10.27;nan
19108;BME280;9686;48.832;9.126;2023-02-20T02:11:19;99251.44;;;10.21;nan
19108;BME280;9686;48.832;9.126;2023-02-20T02:13:46;99242.56;;;10.08;nan
19108;BME280;9686;48.832;9.126;2023-02-20T02:16:22;99245.22;;;10.13;nan
19108;BME280;9686;48.832;9.126;2023-02-20T02:27:29;99235.56;;;10.06;nan
19108;BME280;9686;48.832;9.126;2023-02-20T02:38:29;99238.31;;;10.16;nan
19108;BME280;9686;48.832;9.126;2023-02-20T02:41:10;99245.34;;;10.21;nan
19108;BME280;9686;48.832;9.126;2023-02-20T02:43:48;99247.06;;;10.20;nan
19108;BME280;9686;48.832;9.126;2023-02-20T02:46:26;99240.25;;;10.30;nan
19108;BME280;9686;48.832;9.126;2023-02-20T02:49:00;99240.25;;;10.30;nan
19108;BME280;9686;48.832;9.126;2023-02-20T02:51:31;99233.31;;;10.33;nan
19108;BME280;9686;48.832;9.126;2023-02-20T02:54:17;99228.09;;;10.30;nan
19108;BME280;9686;48.832;9.126;2023-02-20T02:56:46;99216.78;;;10.28;nan
19108;BME280;9686;48.832;9.126;2023-02-20T02:59:19;99228.06;;;10.27;nan
19108;BME280;9686;48.832;9.126;2023-02-20T03:01:51;99215.84;;;10.23;nan
19108;BME280;9686;48.832;9.126;2023-02-20T03:04:18;99209.88;;;10.33;nan
19108;BME280;9686;48.832;9.126;2023-02-20T03:06:48;99213.22;;;10.22;nan
19108;BME280;9686;48.832;9.126;2023-02-20T03:09:25;99220.09;;;10.16;nan
19108;BME280;9686;48.832;9.126;2023-02-20T03:11:54;99217.59;;;10.24;nan
19108;BME280;9686;48.832;9.126;2023-02-20T03:14:23;99221.84;;;10.19;nan
19108;BME280;9686;48.832;9.126;2023-02-20T03:17:31;99226.19;;;10.18;nan
19108;BME280;9686;48.832;9.126;2023-02-20T03:19:59;99217.34;;;10.07;nan
19108;BME280;9686;48.832;9.126;2023-02-20T03:22:36;99224.22;;;10.01;nan
19108;BME280;9686;48.832;9.126;2023-02-20T03:25:10;99221.56;;;9.95;nan
19108;BME280;9686;48.832;9.126;2023-02-20T03:27:42;99221.31;;;9.78;nan
19108;BME280;9686;48.832;9.126;2023-02-20T03:30:24;99212.66;;;9.80;nan
19108;BME280;9686;48.832;9.126;2023-02-20T03:32:59;99218.78;;;9.82;nan
19108;BME280;9686;48.832;9.126;2023-02-20T03:35:45;99216.16;;;9.82;nan
19108;BME280;9686;48.832;9.126;2023-02-20T03:38:35;99223.94;;;9.79;nan
19108;BME280;9686;48.832;9.126;2023-02-20T03:41:22;99237.84;;;9.81;nan
19108;BME280;9686;48.832;9.126;2023-02-20T03:44:09;99224.72;;;9.72;nan
19108;BME280;9686;48.832;9.126;2023-02-20T03:46:37;99226.41;;;9.67;nan
19108;BME280;9686;48.832;9.126;2023-02-20T03:49:10;99227.88;;;9.50;nan
19108;BME280;9686;48.832;9.126;2023-02-20T03:51:37;99234.13;;;9.63;nan
19108;BME280;9686;48.832;9.126;2023-02-20T03:54:22;99234.84;;;9.52;nan
19108;BME280;9686;48.832;9.126;2023-02-20T03:56:49;99226.03;;;9.43;nan
19108;BME280;9686;48.832;9.126;2023-02-20T03:59:25;99224.84;;;9.22;nan
19108;BME280;9686;48.832;9.126;2023-02-20T04:01:59;99231.97;;;9.36;nan
19108;BME280;9686;48.832;9.126;2023-02-20T04:04:32;99233.53;;;9.23;nan
19108;BME280;9686;48.832;9.126;2023-02-20T04:07:00;99227.91;;;8.97;nan
19108;BME280;9686;48.832;9.126;2023-02-20T04:09:31;99215.84;;;9.02;nan
19108;BME280;9686;48.832;9.126;2023-02-20T04:12:18;99216.56;;;8.92;nan
19108;BME280;9686;48.832;9.126;2023-02-20T04:14:45;99206.91;;;8.85;nan
19108;BME280;9686;48.832;9.126;2023-02-20T04:17:15;99203.13;;;8.68;nan
19108;BME280;9686;48.832;9.126;2023-02-20T04:19:44;99204.56;;;8.52;nan
19108;BME280;9686;48.832;9.126;2023-02-20T04:22:13;99198.44;;;8.48;nan
19108;BME280;9686;48.832;9.126;2023-02-20T04:24:55;99205.88;;;8.75;nan
19108;BME280;9686;48.832;9.126;2023-02-20T04:27:22;99207.50;;;8.69;nan
19108;BME280;9686;48.832;9.126;2023-02-20T04:29:47;99206.63;;;8.70;nan
19108;BME280;9686;48.832;9.126;2023-02-20T04:32:13;99196.66;;;8.44;nan
19108;BME280;9686;48.832;9.126;2023-02-20T04:34:38;99198.31;;;8.41;nan
19108;BME280;9686;48.832;9.126;2023-02-20T04:37:13;99205.50;;;8.55;nan
19108;BME280;9686;48.832;9.126;2023-02-20T04:39:39;99201.47;;;8.26;nan
19108;BME280;9686;48.832;9.126;2023-02-20T04:42:05;99198.00;;;8.25;nan
19108;BME280;9686;48.832;9.126;2023-02-20T04:44:30;99199.66;;;8.22;nan
19108;BME280;9686;48.832;9.126;2023-02-20T04:46:56;99204.00;;;8.23;nan
19108;BME280;9686;48.832;9.126;2023-02-20T04:49:21;99204.94;;;8.26;nan
19108;BME280;9686;48.832;9.126;2023-02-20T04:51:47;99213.28;;;8.10;nan
19108;BME280;9686;48.832;9.126;2023-02-20T04:54:12;99216.66;;;8.06;nan
19108;BME280;9686;48.832;9.126;2023-02-20T04:56:37;99225.13;;;7.97;nan
19108;BME280;9686;48.832;9.126;2023-02-20T04:59:03;99218.34;;;8.04;nan
19108;BME280;9686;48.832;9.126;2023-02-20T05:01:28;99217.34;;;7.97;nan
19108;BME280;9686;48.832;9.126;2023-02-20T05:03:54;99223.31;;;7.93;nan
19108;BME280;9686;48.832;9.126;2023-02-20T05:06:19;99217.41;;;8.00;nan
19108;BME280;9686;48.832;9.126;2023-02-20T05:08:44;99211.84;;;7.82;nan
19108;BME280;9686;48.832;9.126;2023-02-20T05:11:10;99213.63;;;7.85;nan
19108;BME280;9686;48.832;9.126;2023-02-20T05:13:35;99208.03;;;8.07;nan
19108;BME280;9686;48.832;9.126;2023-02-20T05:16:00;99211.28;;;7.97;nan
19108;BME280;9686;48.832;9.126;2023-02-20T05:18:27;99210.38;;;7.95;nan
19108;BME280;9686;48.832;9.126;2023-02-20T05:20:52;99214.03;;;8.04;nan
19108;BME280;9686;48.832;9.126;2023-02-20T05:23:36;99210.28;;;7.90;nan
19108;BME280;9686;48.832;9.126;2023-02-20T05:26:02;99210.91;;;7.80;nan
19108;BME280;9686;48.832;9.126;2023-02-20T05:28:27;99202.75;;;7.62;nan
19108;BME280;9686;48.832;9.126;2023-02-20T05:30:52;99203.94;;;7.78;nan
19108;BME280;9686;48.832;9.126;2023-02-20T05:33:18;99204.97;;;7.84;nan
19108;BME280;9686;48.832;9.126;2023-02-20T05:35:43;99211.03;;;7.85;nan
19108;BME280;9686;48.832;9.126;2023-02-20T05:38:08;99204.13;;;7.85;nan
19108;BME280;9686;48.832;9.126;2023-02-20T05:40:34;99205.72;;;7.80;nan
19108;BME280;9686;48.832;9.126;2023-02-20T05:42:59;99197.81;;;7.74;nan
19108;BME280;9686;48.832;9.126;2023-02-20T05:45:24;99209.75;;;7.66;nan
19108;BME280;9686;48.832;9.126;2023-02-20T05:47:50;99214.78;;;7.58;nan
19108;BME280;9686;48.832;9.126;2023-02-20T05:50:15;99215.38;;;7.47;nan
19108;BME280;9686;48.832;9.126;2023-02-20T05:52:40;99215.66;;;7.59;nan
19108;BME280;9686;48.832;9.126;2023-02-20T05:55:06;99216.69;;;7.67;nan
19108;BME280;9686;48.832;9.126;2023-02-20T05:57:32;99217.31;;;7.55;nan
19108;BME280;9686;48.832;9.126;2023-02-20T05:59:57;99208.28;;;7.38;nan
19108;BME280;9686;48.832;9.126;2023-02-20T06:02:22;99215.66;;;7.21;nan
19108;BME280;9686;48.832;9.126;2023-02-20T06:04:47;99212.22;;;7.22;nan
19108;BME280;9686;48.832;9.126;2023-02-20T06:07:13;99216.53;;;7.22;nan
19108;BME280;9686;48.832;9.126;2023-02-20T06:09:42;99212.28;;;7.25;nan
19108;BME280;9686;48.832;9.126;2023-02-20T06:12:08;99217.16;;;7.11;nan
19108;BME280;9686;48.832;9.126;2023-02-20T06:14:33;99217.94;;;7.07;nan
19108;BME280;9686;48.832;9.126;2023-02-20T06:16:58;99219.97;;;7.21;nan
19108;BME280;9686;48.832;9.126;2023-02-20T06:19:24;99215.34;;;7.07;nan
19108;BME280;9686;48.832;9.126;2023-02-20T06:21:51;99216.16;;;7.05;nan
19108;BME280;9686;48.832;9.126;2023-02-20T06:24:22;99215.25;;;7.03;nan
19108;BME280;9686;48.832;9.126;2023-02-20T06:26:48;99218.25;;;7.21;nan
19108;BME280;9686;48.832;9.126;2023-02-20T06:29:15;99209.00;;;7.31;nan
19108;BME280;9686;48.832;9.126;2023-02-20T06:31:41;99210.47;;;7.21;nan
19108;BME280;9686;48.832;9.126;2023-02-20T06:34:08;99219.94;;;7.19;nan
19108;BME280;9686;48.832;9.126;2023-02-20T06:36:36;99221.31;;;7.41;nan
19108;BME280;9686;48.832;9.126;2023-02-20T06:39:03;99216.72;;;7.29;nan
19108;BME280;9686;48.832;9.126;2023-02-20T06:41:29;99225.84;;;7.14;nan
19108;BME280;9686;48.832;9.126;2023-02-20T06:43:54;99230.78;;;7.03;nan
19108;BME280;9686;48.832;9.126;2023-02-20T06:46:20;99231.88;;;7.13;nan
19108;BME280;9686;48.832;9.126;2023-02-20T06:48:49;99239.53;;;7.06;nan
19108;BME280;9686;48.832;9.126;2023-02-20T06:51:16;99232.06;;;7.20;nan
19108;BME280;9686;48.832;9.126;2023-02-20T06:53:42;99237.97;;;7.15;nan
19108;BME280;9686;48.832;9.126;2023-02-20T06:56:09;99240.84;;;7.27;nan
19108;BME280;9686;48.832;9.126;2023-02-20T06:58:37;99248.56;;;7.24;nan
19108;BME280;9686;48.832;9.126;2023-02-20T07:01:02;99246.63;;;7.15;nan
19108;BME280;9686;48.832;9.126;2023-02-20T07:03:28;99244.22;;;7.23;nan
19108;BME280;9686;48.832;9.126;2023-02-20T07:05:53;99243.16;;;7.15;nan
19108;BME280;9686;48.832;9.126;2023-02-20T07:08:18;99252.03;;;7.24;nan
19108;BME280;9686;48.832;9.126;2023-02-20T07:10:43;99256.44;;;7.28;nan
19108;BME280;9686;48.832;9.126;2023-02-20T07:13:09;99248.78;;;7.31;nan
19108;BME280;9686;48.832;9.126;2023-02-20T07:15:34;99245.97;;;7.24;nan
19108;BME280;9686;48.832;9.126;2023-02-20T07:18:00;99244.59;;;7.38;nan
19108;BME280;9686;48.832;9.126;2023-02-20T07:20:28;99246.41;;;7.42;nan
19108;BME280;9686;48.832;9.126;2023-02-20T07:22:54;99246.56;;;7.50;nan
19108;BME280;9686;48.832;9.126;2023-02-20T07:25:19;99248.72;;;7.67;nan
19108;BME280;9686;48.832;9.126;2023-02-20T07:27:45;99241.50;;;7.93;nan
19108;BME280;9686;48.832;9.126;2023-02-20T07:30:11;99249.47;;;8.02;nan
19108;BME280;9686;48.832;9.126;2023-02-20T07:32:36;99245.31;;;8.09;nan
19108;BME280;9686;48.832;9.126;2023-02-20T07:35:02;99247.22;;;8.19;nan
19108;BME280;9686;48.832;9.126;2023-02-20T07:37:27;99254.03;;;8.13;nan
19108;BME280;9686;48.832;9.126;2023-02-20T07:39:53;99252.47;;;8.22;nan
19108;BME280;9686;48.832;9.126;2023-02-20T07:42:18;99251.22;;;8.44;nan
19108;BME280;9686;48.832;9.126;2023-02-20T07:44:43;99249.81;;;8.61;nan
19108;BME280;9686;48.832;9.126;2023-02-20T07:47:11;99262.19;;;8.76;nan
19108;BME280;9686;48.832;9.126;2023-02-20T07:49:36;99257.22;;;8.87;nan
19108;BME280;9686;48.832;9.126;2023-02-20T07:52:02;99245.41;;;9.07;nan
19108;BME280;9686;48.832;9.126;2023-02-20T07:54:27;99244.78;;;9.22;nan
19108;BME280;9686;48.832;9.126;2023-02-20T07:56:53;99235.41;;;9.33;nan
19108;BME280;9686;48.832;9.126;2023-02-20T07:59:19;99238.28;;;9.50;nan
19108;BME280;9686;48.832;9.126;2023-02-20T08:01:44;99237.56;;;9.62;nan
19108;BME280;9686;48.832;9.126;2023-02-20T08:04:10;99232.66;;;9.83;nan
19108;BME280;9686;48.832;9.126;2023-02-20T08:06:35;99232.84;;;9.95;nan
19108;BME280;9686;48.832;9.126;2023-02-20T08:09:01;99234.84;;;10.16;nan
19108;BME280;9686;48.832;9.126;2023-02-20T08:11:26;99223.78;;;10.35;nan
19108;BME280;9686;48.832;9.126;2023-02-20T08:13:51;99219.69;;;10.57;nan
19108;BME280;9686;48.832;9.126;2023-02-20T08:16:20;99211.16;;;10.70;nan
19108;BME280;9686;48.832;9.126;2023-02-20T08:18:47;99210.31;;;10.76;nan
19108;BME280;9686;48.832;9.126;2023-02-20T08:21:12;99207.75;;;10.80;nan
19108;BME280;9686;48.832;9.126;2023-02-20T08:23:37;99214.88;;;10.97;nan
19108;BME280;9686;48.832;9.126;2023-02-20T08:26:04;99220.16;;;11.06;nan
19108;BME280;9686;48.832;9.126;2023-02-20T08:28:30;99215.94;;;11.22;nan
19108;BME280;9686;48.832;9.126;2023-02-20T08:30:55;99210.78;;;11.31;nan
19108;BME280;9686;48.832;9.126;2023-02-20T08:33:21;99214.28;;;11.37;nan
19108;BME280;9686;48.832;9.126;2023-02-20T08:35:46;99218.72;;;11.46;nan
19108;BME280;9686;48.832;9.126;2023-02-20T08:38:26;99214.38;;;11.50;nan
19108;BME280;9686;48.832;9.126;2023-02-20T08:40:52;99208.25;;;11.44;nan
19108;BME280;9686;48.832;9.126;2023-02-20T08:43:17;99204.88;;;11.61;nan
19108;BME280;9686;48.832;9.126;2023-02-20T08:45:43;99202.28;;;11.64;nan
19108;BME280;9686;48.832;9.126;2023-02-20T08:48:08;99204.97;;;11.76;nan
19108;BME280;9686;48.832;9.126;2023-02-20T08:50:33;99203.28;;;11.81;nan
19108;BME280;9686;48.832;9.126;2023-02-20T08:52:59;99212.03;;;11.94;nan
19108;BME280;9686;48.832;9.126;2023-02-20T08:55:24;99203.38;;;11.99;nan
19108;BME280;9686;48.832;9.126;2023-02-20T08:57:49;99209.50;;;12.06;nan
19108;BME280;9686;48.832;9.126;2023-02-20T09:00:15;99207.78;;;12.19;nan
19108;BME280;9686;48.832;9.126;2023-02-20T09:02:41;99197.31;;;12.11;nan
19108;BME280;9686;48.832;9.126;2023-02-20T09:05:07;99196.47;;;12.20;nan
19108;BME280;9686;48.832;9.126;2023-02-20T09:07:33;99197.38;;;12.34;nan
19108;BME280;9686;48.832;9.126;2023-02-20T09:09:58;99197.41;;;12.42;nan
19108;BME280;9686;48.832;9.126;2023-02-20T09:12:23;99195.69;;;12.53;nan
19108;BME280;9686;48.832;9.126;2023-02-20T09:14:49;99182.63;;;12.63;nan
19108;BME280;9686;48.832;9.126;2023-02-20T09:17:15;99188.72;;;12.72;nan
19108;BME280;9686;48.832;9.126;2023-02-20T09:19:40;99184.38;;;12.63;nan
19108;BME280;9686;48.832;9.126;2023-02-20T09:22:06;99180.00;;;12.62;nan
19108;BME280;9686;48.832;9.126;2023-02-20T09:24:31;99177.41;;;12.70;nan
19108;BME280;9686;48.832;9.126;2023-02-20T09:26:59;99165.22;;;12.84;nan
19108;BME280;9686;48.832;9.126;2023-02-20T09:29:26;99175.66;;;12.99;nan
19108;BME280;9686;48.832;9.126;2023-02-20T09:31:51;99165.22;;;13.04;nan
19108;BME280;9686;48.832;9.126;2023-02-20T09:34:16;99163.47;;;13.18;nan
19108;BME280;9686;48.832;9.126;2023-02-20T09:36:42;99170.41;;;13.46;nan
19108;BME280;9686;48.832;9.126;2023-02-20T09:39:07;99161.66;;;13.60;nan
19108;BME280;9686;48.832;9.126;2023-02-20T09:49:45;99151.09;;;13.85;nan
19108;BME280;9686;48.832;9.126;2023-02-20T09:52:13;99150.22;;;13.85;nan
19108;BME280;9686;48.832;9.126;2023-02-20T09:54:49;99153.63;;;13.99;nan
19108;BME280;9686;48.832;9.126;2023-02-20T09:57:20;99154.53;;;13.97;nan
19108;BME280;9686;48.832;9.126;2023-02-20T09:59:51;99151.94;;;13.92;nan
19108;BME280;9686;48.832;9.126;2023-02-20T10:02:27;99144.06;;;13.94;nan
19108;BME280;9686;48.832;9.126;2023-02-20T10:04:56;99143.16;;;13.95;nan
19108;BME280;9686;48.832;9.126;2023-02-20T10:07:32;99144.09;;;13.78;nan
19108;BME280;9686;48.832;9.126;2023-02-20T10:09:59;99136.25;;;13.75;nan
19108;BME280;9686;48.832;9.126;2023-02-20T10:12:31;99130.97;;;13.91;nan
19108;BME280;9686;48.832;9.126;2023-02-20T10:15:14;99137.00;;;14.03;nan
19108;BME280;9686;48.832;9.126;2023-02-20T10:20:56;99133.53;;;13.98;nan
19108;BME280;9686;48.832;9.126;2023-02-20T10:25:56;99121.38;;;13.85;nan
19108;BME280;9686;48.832;9.126;2023-02-20T10:28:24;99121.25;;;14.09;nan
19108;BME280;9686;48.832;9.126;2023-02-20T10:30:57;99130.78;;;14.24;nan
19108;BME280;9686;48.832;9.126;2023-02-20T10:33:47;99124.63;;;14.34;nan
19108;BME280;9686;48.832;9.126;2023-02-20T10:36:38;99121.91;;;14.49;nan
19108;BME280;9686;48.832;9.126;2023-02-20T10:39:06;99124.47;;;14.60;nan
19108;BME280;9686;48.832;9.126;2023-02-20T10:44:32;99121.72;;;14.72;nan
19108;BME280;9686;48.832;9.126;2023-02-20T10:47:20;99121.69;;;14.77;nan
19108;BME280;9686;48.832;9.126;2023-02-20T10:50:02;99115.53;;;14.84;nan
19108;BME280;9686;48.832;9.126;2023-02-20T10:52:41;99107.50;;;14.98;nan
19108;BME280;9686;48.832;9.126;2023-02-20T10:55:20;99107.28;;;15.22;nan
19108;BME280;9686;48.832;9.126;2023-02-20T10:57:56;99109.38;;;14.82;nan
19108;BME280;9686;48.832;9.126;2023-02-20T11:00:30;99104.06;;;14.94;nan
19108;BME280;9686;48.832;9.126;2023-02-20T11:03:04;99092.53;;;15.06;nan
19108;BME280;9686;48.832;9.126;2023-02-20T11:05:37;99101.41;;;14.94;nan
19108;BME280;9686;48.832;9.126;2023-02-20T11:08:04;99103.03;;;15.06;nan
19108;BME280;9686;48.832;9.126;2023-02-20T11:10:29;99095.34;;;15.72;nan
19108;BME280;9686;48.832;9.126;2023-02-20T11:12:57;99087.53;;;15.67;nan
19108;BME280;9686;48.832;9.126;2023-02-20T11:15:25;99089.00;;;15.90;nan
19108;BME280;9686;48.832;9.126;2023-02-20T11:17:54;99089.75;;;15.98;nan
19108;BME280;9686;48.832;9.126;2023-02-20T11:23:00;99076.25;;;16.22;nan
19108;BME280;9686;48.832;9.126;2023-02-20T11:25:36;99080.63;;;16.23;nan
19108;BME280;9686;48.832;9.126;2023-02-20T11:28:20;99078.53;;;15.85;nan
19108;BME280;9686;48.832;9.126;2023-02-20T11:30:49;99070.31;;;16.08;nan
19108;BME280;9686;48.832;9.126;2023-02-20T11:33:23;99057.78;;;16.27;nan
19108;BME280;9686;48.832;9.126;2023-02-20T11:35:58;99056.84;;;16.29;nan
19108;BME280;9686;48.832;9.126;2023-02-20T11:38:34;99050.56;;;16.40;nan
19108;BME280;9686;48.832;9.126;2023-02-20T11:41:05;99051.34;;;16.46;nan
19108;BME280;9686;48.832;9.126;2023-02-20T11:43:37;99049.28;;;16.67;nan
19108;BME280;9686;48.832;9.126;2023-02-20T11:46:20;99041.84;;;16.88;nan
19108;BME280;9686;48.832;9.126;2023-02-20T11:51:44;99028.31;;;17.08;nan
19108;BME280;9686;48.832;9.126;2023-02-20T11:54:25;99024.34;;;17.32;nan
19108;BME280;9686;48.832;9.126;2023-02-20T11:59:30;99017.59;;;18.38;nan
19108;BME280;9686;48.832;9.126;2023-02-20T12:04:40;99000.00;;;19.96;nan
19108;BME280;9686;48.832;9.126;2023-02-20T12:07:33;98986.59;;;20.29;nan
19108;BME280;9686;48.832;9.126;2023-02-20T12:10:23;98988.78;;;20.71;nan
19108;BME280;9686;48.832;9.126;2023-02-20T12:12:51;98984.94;;;20.79;nan
19108;BME280;9686;48.832;9.126;2023-02-20T12:15:19;98977.41;;;21.42;nan
19108;BME280;9686;48.832;9.126;2023-02-20T12:18:00;98978.38;;;21.84;nan
19108;BME280;9686;48.832;9.126;2023-02-20T12:20:29;98968.16;;;23.43;nan
19108;BME280;9686;48.832;9.126;2023-02-20T12:23:19;98962.16;;;22.78;nan
19108;BME280;9686;48.832;9.126;2023-02-20T12:26:07;98967.63;;;22.11;nan
19108;BME280;9686;48.832;9.126;2023-02-20T12:29:03;98956.66;;;21.75;nan
19108;BME280;9686;48.832;9.126;2023-02-20T12:31:44;98945.28;;;21.26;nan
19108;BME280;9686;48.832;9.126;2023-02-20T12:37:18;98936.03;;;21.13;nan
19108;BME280;9686;48.832;9.126;2023-02-20T12:40:01;98939.66;;;21.10;nan
19108;BME280;9686;48.832;9.126;2023-02-20T12:48:22;98931.19;;;19.96;nan
19108;BME280;9686;48.832;9.126;2023-02-20T12:50:58;98924.84;;;19.45;nan
19108;BME280;9686;48.832;9.126;2023-02-20T12:53:52;98925.28;;;19.31;nan
19108;BME280;9686;48.832;9.126;2023-02-20T13:01:49;98904.09;;;19.32;nan
19108;BME280;9686;48.832;9.126;2023-02-20T13:04:31;98911.22;;;18.68;nan
19108;BME280;9686;48.832;9.126;2023-02-20T13:09:34;98898.19;;;18.93;nan
19108;BME280;9686;48.832;9.126;2023-02-20T13:12:09;98896.13;;;19.04;nan
19108;BME280;9686;48.832;9.126;2023-02-20T13:20:20;98869.94;;;18.64;nan
19108;BME280;9686;48.832;9.126;2023-02-20T13:25:48;98860.19;;;18.97;nan
19108;BME280;9686;48.832;9.126;2023-02-20T13:28:35;98847.78;;;19.01;nan
19108;BME280;9686;48.832;9.126;2023-02-20T13:33:32;98839.59;;;19.08;nan
19108;BME280;9686;48.832;9.126;2023-02-20T13:35:59;98821.47;;;19.24;nan
19108;BME280;9686;48.832;9.126;2023-02-20T13:38:26;98812.00;;;19.17;nan
19108;BME280;9686;48.832;9.126;2023-02-20T13:43:25;98812.13;;;19.42;nan
19108;BME280;9686;48.832;9.126;2023-02-20T13:53:41;98797.25;;;19.38;nan
19108;BME280;9686;48.832;9.126;2023-02-20T13:56:29;98798.69;;;19.20;nan
19108;BME280;9686;48.832;9.126;2023-02-20T13:59:20;98796.50;;;19.34;nan
19108;BME280;9686;48.832;9.126;2023-02-20T14:02:16;98794.50;;;19.41;nan
19108;BME280;9686;48.832;9.126;2023-02-20T14:04:59;98795.31;;;19.43;nan
19108;BME280;9686;48.832;9.126;2023-02-20T14:07:33;98791.47;;;19.55;nan
19108;BME280;9686;48.832;9.126;2023-02-20T14:10:00;98792.13;;;19.33;nan
19108;BME280;9686;48.832;9.126;2023-02-20T14:12:27;98789.75;;;19.24;nan
19108;BME280;9686;48.832;9.126;2023-02-20T14:14:52;98794.16;;;18.96;nan
19108;BME280;9686;48.832;9.126;2023-02-20T14:17:19;98803.16;;;19.18;nan
19108;BME280;9686;48.832;9.126;2023-02-20T14:19:48;98801.38;;;18.91;nan
19108;BME280;9686;48.832;9.126;2023-02-20T14:24:45;98799.56;;;18.31;nan
19108;BME280;9686;48.832;9.126;2023-02-20T14:27:27;98786.06;;;18.41;nan
19108;BME280;9686;48.832;9.126;2023-02-20T14:30:06;98789.22;;;18.54;nan
19108;BME280;9686;48.832;9.126;2023-02-20T14:32:32;98781.31;;;18.54;nan
19108;BME280;9686;48.832;9.126;2023-02-20T14:37:48;98788.06;;;18.64;nan
19108;BME280;9686;48.832;9.126;2023-02-20T14:40:33;98766.03;;;18.65;nan
19108;BME280;9686;48.832;9.126;2023-02-20T14:43:02;98745.81;;;18.64;nan
19108;BME280;9686;48.832;9.126;2023-02-20T14:45:28;98766.72;;;18.72;nan
19108;BME280;9686;48.832;9.126;2023-02-20T14:47:59;98763.13;;;18.74;nan
19108;BME280;9686;48.832;9.126;2023-02-20T14:50:30;98762.91;;;18.20;nan
19108;BME280;9686;48.832;9.126;2023-02-20T14:53:14;98747.59;;;18.33;nan
19108;BME280;9686;48.832;9.126;2023-02-20T14:55:42;98757.78;;;18.45;nan
19108;BME280;9686;48.832;9.126;2023-02-20T14:58:18;98762.56;;;18.63;nan
19108;BME280;9686;48.832;9.126;2023-02-20T15:00:45;98735.72;;;18.47;nan
19108;BME280;9686;48.832;9.126;2023-02-20T15:03:19;98749.72;;;18.51;nan
19108;BME280;9686;48.832;9.126;2023-02-20T15:05:45;98750.63;;;18.50;nan
19108;BME280;9686;48.832;9.126;2023-02-20T15:10:47;98752.78;;;18.36;nan
19108;BME280;9686;48.832;9.126;2023-02-20T15:13:17;98748.13;;;18.44;nan
19108;BME280;9686;48.832;9.126;2023-02-20T15:15:45;98751.16;;;18.32;nan
19108;BME280;9686;48.832;9.126;2023-02-20T15:18:13;98751.78;;;18.40;nan
19108;BME280;9686;48.832;9.126;2023-02-20T15:20:46;98754.38;;;18.41;nan
19108;BME280;9686;48.832;9.126;2023-02-20T15:25:39;98756.44;;;18.61;nan
19108;BME280;9686;48.832;9.126;2023-02-20T15:28:26;98745.25;;;18.53;nan